Latest Weather Observations for Urandangi

IDQ60801

Issued at 12:32 pm EST Thursday 23 February 2017 (issued every 30 minutes, with the page automatically refreshed every 10 minutes)

About weather observations | Map of weather stations | Latest weather observations for QLD | Other Formats
Station Details ID: 037058 Name: URANDANGI AERODROME Lat: -21.60 Lon: 138.37 Height: 178.6 m
Data from the previous 72 hours. | See also: Recent months at Urandangi
Date/Time
EST
Temp
°C
App
Temp
°C
Dew
Point
°C
Rel
Hum
%
Delta-T
°C
Wind Press
QNH
hPa
Press
MSL
hPa
Rain since
9am
mm
Dir  Spd
km/h
Gust
km/h
Spd
kts
Gust
kts
23/12:00pm 33.7 35.8 20.1 44 9.1 ENE 9 19 5 10 1014.1 1012.8 0.0
23/11:30am 32.3 33.7 19.5 46 8.5 NE 11 22 6 12 1014.5 1013.2 0.0
23/11:00am 33.2 34.1 20.0 45 8.8 E 15 26 8 14 1014.6 1013.3 0.0
23/10:30am 32.5 33.4 20.1 48 8.3 E 15 24 8 13 1014.8 1013.5 0.0
23/10:00am 31.2 31.8 20.2 52 7.3 E 17 26 9 14 1014.7 1013.4 0.0
23/09:30am 31.0 30.9 20.0 52 7.3 NE 20 32 11 17 1014.7 1013.4 0.0
23/09:00am 29.4 29.9 20.8 60 5.7 ENE 19 24 10 13 1014.3 1013.0 0.0
23/08:30am 27.8 29.1 20.9 66 4.6 NE 15 20 8 11 1013.9 1012.6 0.0
23/08:00am 26.9 29.4 21.0 70 3.9 ENE 9 13 5 7 1013.8 1012.5 0.0
23/07:30am 26.4 28.5 20.9 72 3.7 ENE 11 13 6 7 1013.5 1012.2 0.0
23/07:00am 26.1 29.0 21.1 74 3.3 ENE 7 9 4 5 1013.3 1012.0 0.0
23/06:30am 25.8 29.4 21.2 76 3.1 ENE 4 6 2 3 1013.1 1011.8 0.0
23/06:00am 25.6 28.7 21.1 76 3.0 E 6 6 3 3 1012.7 1011.3 0.0
23/05:30am 25.4 28.6 20.4 74 3.3 ESE 4 4 2 2 1012.4 1011.0 0.0
23/05:00am 25.3 27.9 20.1 73 3.4 ESE 6 6 3 3 1012.1 1010.7 0.0
23/04:30am 25.4 27.8 20.0 72 3.5 ESE 7 7 4 4 1011.6 1010.3 0.0
23/04:00am 25.3 27.7 19.7 71 3.6 SSW 6 6 3 3 1011.5 1010.2 0.0
23/03:30am 25.3 28.9 19.7 71 3.6 CALM 0 0 0 0 1011.7 1010.4 0.0
23/03:00am 25.8 28.6 19.7 69 4.0 E 4 4 2 2 1011.9 1010.6 0.0
23/02:30am 26.0 28.5 19.9 69 4.0 E 6 6 3 3 1012.3 1010.9 0.0
23/02:00am 26.3 28.8 19.9 68 4.2 ESE 6 7 3 4 1012.4 1011.0 0.0
23/01:30am 26.1 28.3 19.7 68 4.2 ESE 7 7 4 4 1012.5 1011.1 0.0
23/01:00am 25.9 28.5 19.3 67 4.3 ENE 4 6 2 3 1012.6 1011.2 0.0
23/12:30am 26.8 29.4 19.2 63 4.9 NE 4 6 2 3 1012.7 1011.3 0.0
23/12:00am 27.8 29.6 19.6 61 5.4 NNE 9 13 5 7 1012.7 1011.3 0.0
 
Date/Time
EST
Temp
°C
App
Temp
°C
Dew
Point
°C
Rel
Hum
%
Delta-T
°C
Wind Press
QNH
hPa
Press
MSL
hPa
Rain since
9am
mm
Dir  Spd
km/h
Gust
km/h
Spd
kts
Gust
kts
22/11:30pm 28.3 29.8 19.8 60 5.6 NE 11 15 6 8 1013.0 1011.7 0.0
22/11:00pm 29.0 30.4 19.6 57 6.2 NE 11 17 6 9 1013.1 1011.8 0.0
22/10:30pm 29.3 30.2 19.3 55 6.5 NE 13 19 7 10 1013.0 1011.7 0.0
22/10:00pm 29.6 30.1 19.3 54 6.7 ENE 15 22 8 12 1012.6 1011.2 0.0
22/09:30pm 29.7 30.5 19.1 53 6.9 ENE 13 17 7 9 1012.2 1010.8 0.0
22/09:00pm 29.8 30.9 18.9 52 7.1 NE 11 15 6 8 1011.8 1010.5 0.0
22/08:30pm 30.1 31.0 18.5 49 7.5 ENE 11 15 6 8 1011.5 1010.2 0.0
22/08:00pm 30.3 30.6 18.7 50 7.6 ENE 15 20 8 11 1010.9 1009.6 0.0
22/07:30pm 30.8 30.1 18.2 47 8.2 NE 19 24 10 13 1010.5 1009.2 0.0
22/07:00pm 31.9 31.3 18.5 45 8.7 ENE 19 28 10 15 1010.1 1008.8 0.0
22/06:30pm 32.4 31.0 18.9 44 8.9 NNE 24 33 13 18 1009.6 1008.3 0.0
22/06:00pm 32.6 30.6 18.4 43 9.3 NE 26 39 14 21 1009.4 1008.1 0.0
22/05:30pm 32.8 30.7 18.9 43 9.1 NE 28 37 15 20 1009.1 1007.8 0.0
22/05:00pm 33.3 30.6 19.7 44 9.1 NE 33 43 18 23 1009.2 1007.9 0.0
22/04:46pm 32.5 29.7 19.4 46 8.7 NE 33 48 18 26 1009.1 1007.8 0.0
22/04:30pm 35.5 33.6 16.8 33 12.0 NE 22 30 12 16 1009.0 1007.7 0.0
22/04:00pm 35.8 35.2 17.5 34 11.9 ENE 17 28 9 15 1008.7 1007.4 0.0
22/03:30pm 34.9 33.6 17.2 35 11.4 ENE 20 32 11 17 1008.9 1007.6 0.0
22/03:00pm 36.2 37.2 16.9 32 12.5 ENE 7 20 4 11 1009.2 1007.9 0.0
22/02:30pm 35.0 35.0 16.3 32 11.9 E 11 19 6 10 1009.7 1008.4 0.0
22/02:00pm 34.5 34.3 16.8 34 11.4 ENE 13 32 7 17 1010.1 1008.8 0.0
22/01:30pm 35.6 35.3 17.3 33 11.9 ENE 15 24 8 13 1010.6 1009.3 0.0
22/01:00pm 34.5 34.7 17.7 37 10.9 ESE 13 24 7 13 1011.2 1009.9 0.0
22/12:30pm 33.3 34.6 17.5 39 10.2 ESE 7 15 4 8 1011.6 1010.3 0.0
22/12:00pm 33.1 33.1 17.3 39 10.2 NE 13 20 7 11 1012.1 1010.7 0.0
22/11:30am 32.6 33.7 18.0 41 9.5 SE 9 17 5 9 1012.6 1011.2 0.0
22/11:00am 32.0 33.7 18.6 45 8.8 E 7 13 4 7 1013.1 1011.8 0.0
22/10:30am 30.9 32.6 18.6 48 8.0 ENE 7 17 4 9 1013.2 1011.9 0.0
22/10:00am 30.1 31.0 18.5 49 7.5 E 11 17 6 9 1013.4 1012.1 0.0
22/09:30am 29.1 30.9 18.8 53 6.7 ESE 7 13 4 7 1013.5 1012.2 0.0
22/09:00am 28.9 30.5 19.2 55 6.3 E 9 17 5 9 1013.5 1012.2 0.0
22/08:30am 27.6 29.8 19.1 59 5.5 SE 6 9 3 5 1013.3 1012.0 0.0
22/08:00am 24.7 27.3 19.3 72 3.5 S 4 7 2 4 1012.9 1011.5 0.0
22/07:30am 21.6 23.8 18.4 82 2.0 E 4 4 2 2 1012.5 1011.1 0.0
22/07:00am 20.7 22.9 17.5 82 2.0 NNE 2 4 1 2 1012.3 1010.9 0.0
22/06:30am 21.4 23.6 18.4 83 1.9 NNE 4 6 2 3 1011.8 1010.5 0.0
22/06:00am 20.8 23.4 17.4 81 2.1 CALM 0 0 0 0 1011.7 1010.4 0.0
22/05:30am 21.3 24.1 17.9 81 2.1 CALM 0 0 0 0 1011.3 1010.0 0.0
22/05:00am 21.0 23.3 17.6 81 2.1 ESE 2 4 1 2 1011.1 1009.8 0.0
22/04:30am 20.9 22.7 17.3 80 2.2 ESE 4 6 2 3 1010.8 1009.5 0.0
22/04:00am 21.4 24.0 17.6 79 2.4 CALM 0 2 0 1 1010.5 1009.2 0.0
22/03:30am 22.4 25.2 18.0 76 2.8 CALM 0 0 0 0 1010.2 1008.9 0.0
22/03:00am 22.4 25.1 17.8 75 2.9 CALM 0 0 0 0 1010.4 1009.1 0.0
22/02:30am 22.7 25.5 18.0 75 3.0 CALM 0 0 0 0 1010.6 1009.3 0.0
22/02:00am 22.9 25.8 18.2 75 3.0 CALM 0 0 0 0 1011.0 1009.7 0.0
22/01:30am 23.3 25.0 18.4 74 3.1 ENE 7 7 4 4 1011.4 1010.1 0.0
22/01:00am 23.3 25.1 17.5 70 3.6 NE 4 4 2 2 1011.6 1010.3 0.0
22/12:30am 24.8 27.2 18.0 66 4.3 N 2 2 1 1 1011.7 1010.4 0.0
22/12:00am 25.7 27.4 18.1 63 4.8 N 6 7 3 4 1012.1 1010.7 0.0
 
Date/Time
EST
Temp
°C
App
Temp
°C
Dew
Point
°C
Rel
Hum
%
Delta-T
°C
Wind Press
QNH
hPa
Press
MSL
hPa
Rain since
9am
mm
Dir  Spd
km/h
Gust
km/h
Spd
kts
Gust
kts
21/11:30pm 26.3 28.1 18.4 61 5.1 N 6 11 3 6 1012.1 1010.7 0.0
21/11:00pm 26.3 28.3 17.9 60 5.3 NNE 4 4 2 2 1012.3 1010.9 0.0
21/10:30pm 26.8 28.4 17.8 57 5.7 NE 6 7 3 4 1011.9 1010.6 0.0
21/10:00pm 27.6 29.1 17.5 54 6.4 NNE 6 7 3 4 1011.4 1010.1 0.0
21/09:30pm 28.6 29.9 17.5 51 7.1 NNE 7 9 4 5 1011.1 1009.8 0.0
21/09:00pm 29.6 29.9 17.1 47 7.9 NNE 11 17 6 9 1010.6 1009.3 0.0
21/08:30pm 30.6 30.0 16.6 43 8.8 NNE 15 24 8 13 1010.4 1009.1 0.0
21/08:00pm 31.7 30.1 16.4 39 9.7 NNE 20 28 11 15 1010.0 1008.7 0.0
21/07:30pm 32.6 30.0 16.0 36 10.5 NNE 24 33 13 18 1009.5 1008.2 0.0
21/07:00pm 35.5 34.4 11.8 24 14.2 E 9 13 5 7 1008.9 1007.6 0.0
21/06:30pm 36.1 33.4 10.3 21 15.2 E 15 22 8 12 1008.7 1007.4 0.0
21/06:00pm 36.9 34.9 10.2 20 15.7 SE 11 19 6 10 1008.5 1007.2 0.0
21/05:30pm 37.1 35.0 11.1 21 15.5 E 13 28 7 15 1008.4 1007.1 0.0
21/05:00pm 37.1 34.6 11.1 21 15.6 E 15 22 8 12 1008.5 1007.2 0.0
21/04:30pm 36.8 35.0 10.9 21 15.4 E 11 20 6 11 1008.8 1007.5 0.0
21/04:00pm 36.9 35.9 11.0 21 15.5 ESE 7 19 4 10 1008.9 1007.6 0.0
21/03:30pm 37.5 35.5 11.5 21 15.6 E 13 24 7 13 1009.1 1007.8 0.0
21/03:00pm 36.9 34.6 11.7 22 15.2 E 15 26 8 14 1009.6 1008.3 0.0
21/02:30pm 36.5 33.7 11.3 22 15.1 ENE 17 28 9 15 1010.2 1008.9 0.0
21/02:00pm 36.4 33.6 11.3 22 15.0 E 17 28 9 15 1010.6 1009.3 0.0
21/01:30pm 35.2 31.7 10.3 22 14.6 E 19 30 10 16 1011.0 1009.7 0.0
21/01:00pm 35.1 32.0 11.5 24 14.1 E 19 28 10 15 1011.6 1010.3 0.0
21/12:30pm 35.3 33.0 12.9 26 13.6 E 17 32 9 17 1012.2 1010.8 0.0
21/12:00pm 33.6 31.4 12.0 27 12.9 ENE 15 24 8 13 1012.8 1011.4 0.0
21/11:30am 33.4 31.1 11.9 27 12.8 ENE 15 28 8 15 1013.3 1012.0 0.0
21/11:00am 31.4 29.1 11.7 29 11.6 ENE 15 22 8 12 1013.6 1012.3 0.0
21/10:30am 31.1 29.6 12.0 31 11.3 ENE 11 17 6 9 1013.9 1012.6 0.0
21/10:00am 29.6 26.9 7.5 25 12.1 E 11 15 6 8 1014.0 1012.7 0.0
21/09:30am 26.8 24.0 5.1 25 11.2 ESE 9 15 5 8 1014.0 1012.7 0.0
21/09:00am 23.5 20.8 5.4 31 9.2 SE 9 11 5 6 1013.7 1012.4 0.0
21/08:30am 18.6 17.8 8.3 51 5.4 SSE 2 4 1 2 1013.5 1012.2 0.0
21/08:00am 17.2 15.9 7.8 54 4.8 SSE 4 6 2 3 1013.1 1011.8 0.0
21/07:30am 15.9 14.3 8.2 60 3.9 SSE 6 6 3 3 1012.8 1011.4 0.0
21/07:00am 15.5 13.5 7.3 58 4.1 S 7 7 4 4 1012.3 1010.9 0.0
21/06:30am 15.3 12.7 6.3 55 4.4 SSE 9 11 5 6 1011.8 1010.5 0.0
21/06:00am 15.4 13.2 5.3 51 4.8 SSE 6 6 3 3 1011.8 1010.5 0.0
21/05:30am 15.7 13.7 6.2 53 4.6 SSE 6 7 3 4 1011.5 1010.2 0.0
21/05:00am 15.5 13.5 7.0 57 4.2 SE 7 9 4 5 1011.6 1010.3 0.0
21/04:30am 15.9 13.5 5.2 49 5.1 SE 7 9 4 5 1011.3 1010.0 0.0
21/04:00am 16.6 14.7 6.7 52 4.9 ESE 6 6 3 3 1011.3 1010.0 0.0
21/03:30am 16.8 14.4 5.4 47 5.5 SSE 7 9 4 5 1011.5 1010.2 0.0
21/03:00am 17.1 14.5 6.0 48 5.5 SE 9 13 5 7 1011.6 1010.3 0.0
21/02:30am 17.5 15.3 6.4 48 5.5 SE 7 9 4 5 1011.7 1010.4 0.0
21/02:00am 17.4 15.9 9.3 59 4.3 ESE 7 9 4 5 1011.5 1010.2 0.0
21/01:30am 18.0 16.5 9.1 56 4.7 ESE 7 9 4 5 1011.6 1010.3 0.0
21/01:00am 18.5 16.7 7.3 48 5.7 ESE 6 7 3 4 1011.8 1010.5 0.0
21/12:30am 19.2 17.6 7.9 48 5.9 ESE 6 6 3 3 1011.9 1010.6 0.0
21/12:00am 20.0 18.2 7.1 43 6.6 E 6 7 3 4 1012.2 1010.8 0.0
 
Date/Time
EST
Temp
°C
App
Temp
°C
Dew
Point
°C
Rel
Hum
%
Delta-T
°C
Wind Press
QNH
hPa
Press
MSL
hPa
Rain since
9am
mm
Dir  Spd
km/h
Gust
km/h
Spd
kts
Gust
kts
20/11:30pm 20.6 18.2 5.4 37 7.6 SE 7 9 4 5 1012.1 1010.7 0.0
20/11:00pm 21.7 19.2 4.7 33 8.4 SE 7 9 4 5 1012.1 1010.7 0.0
20/10:30pm 23.2 19.8 4.2 29 9.4 SE 11 13 6 7 1011.7 1010.4 0.0
20/10:00pm 24.4 21.0 4.2 27 10.1 SSE 11 13 6 7 1011.6 1010.3 0.0
20/09:30pm 23.8 20.6 5.2 30 9.4 SSE 11 13 6 7 1011.4 1010.1 0.0
20/09:00pm 23.9 21.2 5.8 31 9.3 SSE 9 11 5 6 1011.3 1010.0 0.0
20/08:30pm 24.7 21.6 5.5 29 9.8 SSE 11 15 6 8 1010.9 1009.6 0.0
20/08:00pm 26.1 22.9 5.1 26 10.8 SSE 11 13 6 7 1010.7 1009.4 0.0
20/07:30pm 26.9 23.7 5.2 25 11.2 SSE 11 13 6 7 1010.5 1009.2 0.0
20/07:00pm 29.4 25.9 3.4 19 13.2 SE 11 13 6 7 1010.5 1009.2 0.0
20/06:30pm 31.1 27.4 2.3 16 14.5 SE 11 17 6 9 1010.2 1008.9 0.0
20/06:00pm 32.8 27.3 0.8 13 15.9 SE 19 30 10 16 1009.7 1008.4 0.0
20/05:30pm 33.4 28.5 2.3 14 15.9 ESE 17 26 9 14 1009.6 1008.3 0.0
20/05:00pm 33.4 28.9 2.3 14 15.9 ESE 15 24 8 13 1009.6 1008.3 0.0
20/04:30pm 32.9 28.2 0.9 13 15.9 ESE 15 24 8 13 1009.7 1008.4 0.0
20/04:00pm 33.6 28.6 1.4 13 16.3 ESE 17 26 9 14 1009.7 1008.4 0.0
20/03:30pm 33.3 28.3 1.2 13 16.1 ESE 17 26 9 14 1009.7 1008.4 0.0
20/03:00pm 33.0 27.4 0.9 13 16.0 SE 20 32 11 17 1009.8 1008.5 0.0
20/02:30pm 33.3 27.7 1.2 13 16.1 ESE 20 30 11 16 1010.3 1009.0 0.0
20/02:00pm 32.2 26.6 1.3 14 15.4 ESE 20 28 11 15 1010.6 1009.3 0.0
20/01:30pm 31.7 25.3 1.0 14 15.2 SE 24 35 13 19 1011.1 1009.8 0.0
20/01:00pm 31.3 25.4 1.6 15 14.8 ESE 22 33 12 18 1011.6 1010.3 0.0

Other Formats:

Comma delimited format used in spreadsheet applications
http://www.bom.gov.au/fwo/IDQ60801/IDQ60801.94344.axf

JavaScript Object Notation format (JSON) in row-major order
http://www.bom.gov.au/fwo/IDQ60801/IDQ60801.94344.json